METAR Data
IDs: Format: Raw Decoded Include TAF

Data at: 0814 UTC 18 Nov 2018

PAIK 180756Z AUTO VRB03KT 10SM BKN095 M05/M11 A2961 RMK AO2 SLP031 T10501106 FZRANO
PAIK 180656Z AUTO 08010G17KT 10SM OVC090 M03/M12 A2961 RMK AO2 SLP031 T10331117 FZRANO
PAIK 180556Z AUTO 10004KT 10SM OVC090 M04/M10 A2962 RMK AO2 SLP035 T10441100 11028 21044 56005 FZRANO
PAIK 180456Z AUTO 10013G19KT 10SM OVC100 M04/M11 A2963 RMK AO2 SLP038 T10391111 FZRANO
PAIK 180356Z AUTO 10006KT 10SM SCT070 OVC095 M04/M10 A2963 RMK AO2 SLP037 T10391100 FZRANO
PAIK 180256Z AUTO 08007KT 10SM BKN080 M03/M12 A2963 RMK AO2 SLP040 T10331117 56008 FZRANO
PAIK 180156Z AUTO 09005KT 10SM SCT040 OVC080 M03/M10 A2964 RMK AO2 SLP043 T10331100 FZRANO
PAIK 180056Z AUTO 08009G14KT 10SM OVC040 M03/M11 A2965 RMK AO2 SLP045 T10281106 FZRANO
PAIK 172356Z AUTO 10008KT 10SM FEW039 BKN090 M03/M11 A2966 RMK AO2 SLP048 60000 T10331106 11028 21039 58010 FZRANO
PAIK 172317Z AUTO 09008KT 10SM SCT029 OVC039 M03/M11 A2967 RMK AO2 FZRANO
PAIK 172256Z AUTO 10006KT 10SM OVC027 M03/M11 A2967 RMK AO2 SLP053 T10281106 FZRANO
PAIK 172156Z AUTO 09008KT 10SM OVC023 M03/M10 A2968 RMK AO2 SLP057 T10281100 FZRANO
PAIK 172056Z AUTO 07010KT 10SM OVC027 M03/M09 A2969 RMK AO2 SLP058 60000 T10281094 57003 FZRANO
PAIK 171956Z AUTO 07011G17KT 10SM OVC027 M03/M09 A2969 RMK AO2 SNE23 SLP059 P0000 T10331089 FZRANO
PAIK 171856Z AUTO 07011G16KT 9SM -SN OVC029 M03/M11 A2969 RMK AO2 SLP060 P0000 T10331106 FZRANO
PAIK 171811Z AUTO 09007KT 050V120 9SM -SN BKN029 OVC040 M03/M08 A2970 RMK AO2 P0000 FZRANO
PAIK 171756Z AUTO 07012KT 9SM -SN OVC040 M04/M08 A2970 RMK AO2 SLP061 P0000 60000 T10391083 11039 21050 57010 FZRANO
PAIK 171656Z AUTO 08009KT 9SM -SN OVC032 M04/M08 A2970 RMK AO2 SLP064 P0000 T10391078 FZRANO
PAIK 171556Z AUTO 08009KT 9SM -SN OVC030 M05/M08 A2972 RMK AO2 SLP068 P0000 T10501078 FZRANO
PAIK 171456Z AUTO 09014G25KT 4SM -SN OVC034 M04/M08 A2973 RMK AO2 SLP071 P0000 60000 T10441078 58013 FZRANO
PAIK 171356Z AUTO 08012G18KT 9SM -SN FEW018 OVC032 M04/M08 A2974 RMK AO2 SLP076 P0000 T10441078 FZRANO
PAIK 171256Z AUTO 07010KT 9SM -SN FEW018 OVC032 M04/M07 A2976 RMK AO2 SLP082 P0000 T10441072 FZRANO
PAIK 171156Z AUTO 07013G19KT 5SM -SN BR FEW016 OVC032 M05/M07 A2977 RMK AO2 SLP085 P0000 60000 T10501072 11039 21056 58013 FZRANO
PAIK 171056Z AUTO 08011G19KT 9SM -SN OVC030 M04/M08 A2979 RMK AO2 SLP091 P0000 T10441078 FZRANO
PAIK 170956Z AUTO 08013G19KT 9SM -SN OVC034 M05/M08 A2980 RMK AO2 SLP096 P0000 T10501078 FZRANO
PAIK 170856Z AUTO 09015G22KT 8SM -SN BKN037 OVC048 M05/M08 A2981 RMK AO2 SLP099 P0000 60000 T10501078 410391167 58019 FZRANO
PAIK 170756Z AUTO 07011G18KT 9SM -SN SCT028 OVC035 M05/M08 A2983 RMK AO2 SLP106 P0000 T10501078 FZRANO
PAIK 170656Z AUTO 09013G20KT 9SM -SN OVC030 M06/M10 A2985 RMK AO2 SNB16 SLP113 P0000 T10561100 FZRANO
PAIK 170619Z AUTO 08009KT 10SM -SN OVC032 M05/M12 A2986 RMK AO2 SNB16 P0000 FZRANO
PAIK 170556Z AUTO 09008KT 10SM OVC029 M04/M12 A2986 RMK AO2 SNB00E21 SLP118 P0000 60000 T10441117 11044 21061 56008 FZRANO
PAIK 170551Z AUTO 07008KT 10SM OVC029 M04/M12 A2986 RMK AO2 SNB00E21 P0000 FZRANO
PAIK 170456Z AUTO 10008KT 10SM OVC050 M05/M12 A2986 RMK AO2 SLP118 T10501122 FZRANO
PAIK 170356Z AUTO 09007KT 10SM OVC095 M05/M13 A2989 RMK AO2 SLP125 T10501128 FZRANO
PAIK 170256Z AUTO 07009KT 10SM BKN100 OVC110 M05/M12 A2990 RMK AO2 SLP131 T10501122 56020 FZRANO
PAIK 170156Z AUTO 09012KT 10SM OVC100 M06/M14 A2992 RMK AO2 SLP137 T10561139 FZRANO
PAIK 170056Z AUTO 08009KT 10SM OVC110 M06/M14 A2994 RMK AO2 SLP144 T10561139 FZRANO
PAIK 162356Z AUTO 07006KT 10SM OVC110 M06/M14 A2996 RMK AO2 SLP151 T10561139 11050 21100 56021 FZRANO
PAIK 162256Z AUTO 08010G15KT 10SM OVC100 M06/M14 A2997 RMK AO2 SLP154 T10561139 FZRANO
PAIK 162156Z AUTO 09010KT 10SM OVC110 M07/M16 A3000 RMK AO2 SLP166 T10721161 FZRANO
PAIK 162056Z AUTO 08006KT 10SM OVC120 M07/M16 A3002 RMK AO2 SLP172 T10721156 58009 FZRANO